首页
METAR-TAF:

METAR-TAF

机场 :

昆明长水国际机场

昆明, 中华人民共和国

纬度: 25-01N, 经度: 102-41E, 海拔: 1892米

当前天气观测

该预报发布于10分钟前的16:00 UTC
风速8节,风向南转西南
温度 19°C
湿度 100%
气压 1016 hPa
能见度10公里或以上
少量云层高于2300英尺
多云层高于4600英尺

METAR: ZPPP 111600Z 21004MPS 9999 FEW023 BKN046 19/19 Q1016 NOSIG

时间: 00:10 (16:10 UTC)

预报

该预报发布于7小时和7分钟前的09:03 UTC
预报有效从11日的 12点(UTC)到 12日的 12点(UTC)
风速8节,风向西南
能见度10公里或以上
散云层高于2600英尺
多云层高于4000英尺

TAF: ZPPP 110903Z 1112/1212 22004MPS 9999 SCT026 BKN040 TX26/1208Z TN16/1123Z

超过4000个机场的气象观测和天气预报(METAR&TAF报告)。

可查询的气象台以黄色和红色小点在地图上表示。

将鼠标移到小点上方,可查看气象台名称。

然后点击查看天气观测和预报。

如需切换地图:点击带黑十字的绿色按钮放大地图;点击带横线的绿色按钮缩小地图;或者点击绿色箭头查看邻近地区的地图。


METAR-TAF: